Griffin, Indiana
Current Conditions -  °F | °C
As of 7:55 PM on Wednesday 26 Nov 2014 (Local Time) from KCUL Reporting Station
Light Rain Light Rain  
Wind Chill: 34°   Ceiling: 300
Heat Index: 34°   Visibility: 1.7mi
Dew Point: 34°   Wind: 3mph
Humidity: 100%   Direction: 30°NNE
Pressure: 30.05"   Gusts: NA
Location:  38.2°N, 87.91°W
Report Text: KCUL 270155Z AUTO 03003KT 1 3/4SM -RA OVC003 01/01 A3005 RMK AO2 P0001 T00100010
Loading
Personal Weather Stations






























Interactive Weather Map New forecast layout! Learn more

10-Day Weather Forecast

Advertisements
Track Severe Weather on mobile